createdAt,value
2019-01-19T00:02:51.819Z,98584.45
2019-01-19T00:05:52.167Z,98580.16
2019-01-19T00:08:53.470Z,98580.08
2019-01-19T00:11:58.736Z,98576.59
2019-01-19T00:15:07.790Z,98576.46
2019-01-19T00:18:31.419Z,98574.30
2019-01-19T00:21:33.407Z,98572.17
2019-01-19T00:24:48.102Z,98568.33
2019-01-19T00:28:00.244Z,98566.20
2019-01-19T00:30:43.790Z,98564.03
2019-01-19T00:34:03.266Z,98561.88
2019-01-19T00:37:11.589Z,98567.93
2019-01-19T00:40:31.075Z,98563.45
2019-01-19T00:43:19.550Z,98571.56
2019-01-19T00:46:30.229Z,98569.88
2019-01-19T00:49:29.792Z,98560.36
2019-01-19T00:52:27.873Z,98563.38
2019-01-19T00:55:29.281Z,98561.67
2019-01-19T00:58:28.882Z,98555.13
2019-01-19T01:01:25.188Z,98549.08
2019-01-19T01:04:25.487Z,98553.75
2019-01-19T01:07:45.869Z,98557.39
2019-01-19T01:10:42.539Z,98560.64
2019-01-19T01:13:43.067Z,98556.92
2019-01-19T01:16:53.130Z,98552.48
2019-01-19T01:19:45.233Z,98555.72
2019-01-19T01:22:55.318Z,98555.55
2019-01-19T01:25:49.468Z,98549.63
2019-01-19T01:28:55.197Z,98548.44
2019-01-19T01:32:06.321Z,98545.00
2019-01-19T01:35:32.669Z,98541.98
2019-01-19T01:38:24.074Z,98539.95
2019-01-19T01:41:56.410Z,98544.06
2019-01-19T01:44:45.075Z,98548.09
2019-01-19T01:47:54.996Z,98547.61
2019-01-19T01:50:43.089Z,98554.04
2019-01-19T01:54:06.480Z,98552.36
2019-01-19T01:56:36.690Z,98548.47
2019-01-19T01:59:38.262Z,98553.20
2019-01-19T02:02:57.864Z,98545.29
2019-01-19T02:06:06.251Z,98550.04
2019-01-19T02:08:54.866Z,98543.05
2019-01-19T02:11:56.484Z,98546.03
2019-01-19T02:15:14.320Z,98542.47
2019-01-19T02:18:19.559Z,98539.19
2019-01-19T02:21:31.997Z,98528.95
2019-01-19T02:24:30.013Z,98526.89
2019-01-19T02:27:37.194Z,98534.59
2019-01-19T02:30:31.251Z,98534.41
2019-01-19T02:33:55.890Z,98525.84
2019-01-19T02:37:05.452Z,98528.60
2019-01-19T02:40:07.306Z,98529.27
2019-01-19T02:42:59.519Z,98530.70
2019-01-19T02:46:16.896Z,98526.05
2019-01-19T02:49:19.837Z,98525.77
2019-01-19T02:52:29.774Z,98533.22
2019-01-19T02:55:39.370Z,98524.53
2019-01-19T02:58:36.862Z,98524.17
2019-01-19T03:01:46.102Z,98521.70
2019-01-19T03:04:58.929Z,98515.19
2019-01-19T03:08:16.935Z,98506.81
2019-01-19T03:11:25.471Z,98511.27
2019-01-19T03:14:42.790Z,98514.83
2019-01-19T03:20:07.926Z,98505.22
2019-01-19T03:23:06.517Z,98507.68
2019-01-19T03:26:12.451Z,98497.63
2019-01-19T03:29:16.411Z,98505.36
2019-01-19T03:32:19.399Z,98498.16
2019-01-19T03:35:37.297Z,98494.45
2019-01-19T03:39:02.018Z,98493.55
2019-01-19T03:42:20.143Z,98497.59
2019-01-19T03:45:21.419Z,98499.78
2019-01-19T03:48:39.030Z,98493.41
2019-01-19T03:51:37.951Z,98490.16
2019-01-19T03:54:45.857Z,98483.56
2019-01-19T03:57:41.755Z,98486.34
2019-01-19T04:01:08.408Z,98480.91
2019-01-19T04:04:07.384Z,98484.11
2019-01-19T04:06:55.147Z,98476.61
2019-01-19T04:09:47.196Z,98472.80
2019-01-19T04:12:55.872Z,98470.20
2019-01-19T04:16:07.518Z,98467.95
2019-01-19T04:19:15.841Z,98462.96
2019-01-19T04:22:13.103Z,98462.84
2019-01-19T04:24:50.679Z,98464.08
2019-01-19T04:27:21.536Z,98469.42
2019-01-19T04:29:52.098Z,98469.98
2019-01-19T04:32:22.669Z,98466.61
2019-01-19T04:34:52.886Z,98463.17
2019-01-19T04:37:23.073Z,98465.78
2019-01-19T04:39:53.602Z,98463.06
2019-01-19T04:42:24.268Z,98460.99
2019-01-19T04:44:54.480Z,98462.02
2019-01-19T04:47:25.410Z,98466.81
2019-01-19T04:49:55.700Z,98456.13
2019-01-19T04:52:26.249Z,98458.92
2019-01-19T04:54:56.784Z,98460.27
2019-01-19T04:57:27.618Z,98460.42
2019-01-19T04:59:58.131Z,98458.90
2019-01-19T05:02:28.353Z,98458.38
2019-01-19T05:04:58.922Z,98459.67
2019-01-19T05:07:29.160Z,98458.90
2019-01-19T05:09:59.956Z,98458.07
2019-01-19T05:12:30.454Z,98462.81
2019-01-19T05:15:01.079Z,98461.26
2019-01-19T05:17:31.559Z,98462.73
2019-01-19T05:20:02.073Z,98457.72
2019-01-19T05:22:32.283Z,98462.65
2019-01-19T05:25:02.478Z,98454.98
2019-01-19T05:27:33.358Z,98454.97
2019-01-19T05:30:03.616Z,98447.29
2019-01-19T05:32:34.522Z,98447.75
2019-01-19T05:35:04.973Z,98454.36
2019-01-19T05:37:35.590Z,98453.47
2019-01-19T05:40:07.353Z,98452.83
2019-01-19T05:42:37.597Z,98449.47
2019-01-19T05:45:09.665Z,98447.70
2019-01-19T05:47:40.179Z,98453.83
2019-01-19T05:50:19.258Z,98457.77
2019-01-19T05:52:49.685Z,98462.03
2019-01-19T05:55:19.880Z,98463.36
2019-01-19T05:57:50.097Z,98459.34
2019-01-19T06:00:31.016Z,98469.86
2019-01-19T06:03:01.560Z,98455.23
2019-01-19T06:05:32.083Z,98457.00
2019-01-19T06:08:02.759Z,98463.41
2019-01-19T06:10:33.062Z,98453.37
2019-01-19T06:13:03.279Z,98449.06
2019-01-19T06:15:33.473Z,98456.34
2019-01-19T06:18:03.697Z,98454.54
2019-01-19T06:20:34.190Z,98455.06
2019-01-19T06:23:04.501Z,98460.47
2019-01-19T06:25:35.988Z,98456.23
2019-01-19T06:28:06.231Z,98463.73
2019-01-19T06:30:36.513Z,98460.75
2019-01-19T06:33:07.097Z,98458.23
2019-01-19T06:35:37.937Z,98459.46
2019-01-19T06:38:08.456Z,98454.00
2019-01-19T06:40:38.991Z,98454.00
2019-01-19T06:43:09.625Z,98450.95
2019-01-19T06:45:39.883Z,98447.50
2019-01-19T06:48:10.113Z,98451.94
2019-01-19T06:50:40.666Z,98445.87
2019-01-19T06:53:10.892Z,98451.55
2019-01-19T06:55:41.081Z,98454.86
2019-01-19T06:58:11.352Z,98453.95
2019-01-19T07:00:41.890Z,98447.40
2019-01-19T07:03:13.563Z,98444.25
2019-01-19T07:05:44.452Z,98448.16
2019-01-19T07:08:15.020Z,98442.19
2019-01-19T07:10:45.287Z,98445.05
2019-01-19T07:13:16.178Z,98442.20
2019-01-19T07:15:46.784Z,98444.79
2019-01-19T07:18:17.371Z,98443.89
2019-01-19T07:20:47.879Z,98446.58
2019-01-19T07:23:18.390Z,98450.49
2019-01-19T07:25:48.908Z,98461.59
2019-01-19T07:28:19.171Z,98459.01
2019-01-19T07:30:49.391Z,98459.91
2019-01-19T07:33:19.635Z,98458.62
2019-01-19T07:35:49.842Z,98465.28
2019-01-19T07:38:21.034Z,98467.06
2019-01-19T07:40:51.240Z,98470.58
2019-01-19T07:43:22.408Z,98468.30
2019-01-19T07:45:52.852Z,98464.06
2019-01-19T07:48:24.286Z,98465.56
2019-01-19T07:50:54.959Z,98469.39
2019-01-19T07:53:25.430Z,98468.84
2019-01-19T07:55:57.255Z,98467.87
2019-01-19T07:58:27.664Z,98462.93
2019-01-19T08:00:58.960Z,98463.36
2019-01-19T08:03:29.765Z,98470.20
2019-01-19T08:06:00.096Z,98469.19
2019-01-19T08:08:31.837Z,98471.81
2019-01-19T08:11:03.724Z,98468.35
2019-01-19T08:13:34.101Z,98463.39
2019-01-19T08:16:04.594Z,98463.23
2019-01-19T08:18:35.764Z,98473.85
2019-01-19T08:21:06.141Z,98468.47
2019-01-19T08:23:36.641Z,98464.83
2019-01-19T08:26:07.394Z,98474.65
2019-01-19T08:28:38.112Z,98468.95
2019-01-19T08:31:08.487Z,98474.89
2019-01-19T08:33:38.895Z,98476.48
2019-01-19T08:36:11.031Z,98474.12
2019-01-19T08:38:41.882Z,98478.69
2019-01-19T08:41:12.913Z,98478.94
2019-01-19T08:43:56.360Z,98479.48
2019-01-19T08:46:26.761Z,98472.71
2019-01-19T08:48:58.519Z,98474.56
2019-01-19T08:51:28.865Z,98477.29
2019-01-19T08:53:59.632Z,98471.64
2019-01-19T08:56:30.344Z,98475.21
2019-01-19T08:59:01.129Z,98477.96
2019-01-19T09:01:31.899Z,98480.25
2019-01-19T09:04:02.671Z,98470.48
2019-01-19T09:06:33.928Z,98464.62
2019-01-19T09:09:06.659Z,98463.53
2019-01-19T09:11:37.413Z,98465.55
2019-01-19T09:14:08.416Z,98462.62
2019-01-19T09:16:40.580Z,98463.28
2019-01-19T09:19:15.218Z,98463.03
2019-01-19T09:21:49.725Z,98469.58
2019-01-19T09:24:25.208Z,98469.67
2019-01-19T09:26:56.374Z,98463.71
2019-01-19T09:29:27.281Z,98471.05
2019-01-19T09:31:57.956Z,98474.96
2019-01-19T09:34:28.549Z,98468.36
2019-01-19T09:36:58.833Z,98468.86
2019-01-19T09:39:29.205Z,98470.92
2019-01-19T09:41:59.841Z,98471.49
2019-01-19T09:44:30.232Z,98476.42
2019-01-19T09:47:00.515Z,98469.28
2019-01-19T09:49:31.103Z,98474.16
2019-01-19T09:52:01.658Z,98472.89
2019-01-19T09:54:32.364Z,98469.11
2019-01-19T09:57:02.731Z,98474.91
2019-01-19T09:59:33.031Z,98477.56
2019-01-19T10:02:03.314Z,98482.02
2019-01-19T10:04:33.871Z,98477.80
2019-01-19T10:07:05.023Z,98479.77
2019-01-19T10:09:36.400Z,98475.55
2019-01-19T10:12:07.000Z,98466.33
2019-01-19T10:14:37.572Z,98467.80
2019-01-19T10:17:07.848Z,98459.34
2019-01-19T10:19:38.751Z,98455.65
2019-01-19T10:22:09.843Z,98459.09
2019-01-19T10:24:40.029Z,98458.89
2019-01-19T10:27:10.577Z,98453.77
2019-01-19T10:29:40.843Z,98445.91
2019-01-19T10:32:11.091Z,98443.59
2019-01-19T10:34:42.395Z,98441.50
2019-01-19T10:37:12.690Z,98441.05
2019-01-19T10:39:43.354Z,98437.20
2019-01-19T10:42:15.890Z,98426.94
2019-01-19T10:44:47.270Z,98427.98
2019-01-19T10:47:17.548Z,98429.77
2019-01-19T10:49:48.252Z,98423.25
2019-01-19T10:52:18.565Z,98419.97
2019-01-19T10:54:49.321Z,98423.87
2019-01-19T10:57:19.906Z,98419.02
2019-01-19T10:59:50.133Z,98417.86
2019-01-19T11:02:20.398Z,98414.66
2019-01-19T11:04:50.975Z,98408.67
2019-01-19T11:07:22.856Z,98408.13
2019-01-19T11:09:53.427Z,98402.55
2019-01-19T11:12:24.158Z,98395.76
2019-01-19T11:14:55.061Z,98396.91
2019-01-19T11:17:25.977Z,98399.34
2019-01-19T11:19:56.291Z,98396.12
2019-01-19T11:22:26.848Z,98385.30
2019-01-19T11:24:57.328Z,98382.56
2019-01-19T11:27:27.941Z,98377.70
2019-01-19T11:29:58.270Z,98380.39
2019-01-19T11:32:28.550Z,98377.02
2019-01-19T11:34:59.512Z,98369.25
2019-01-19T11:37:29.754Z,98367.48
2019-01-19T11:39:59.988Z,98363.26
2019-01-19T11:42:33.020Z,98362.72
2019-01-19T11:45:03.626Z,98358.69
2019-01-19T11:47:33.859Z,98352.23
2019-01-19T11:50:04.769Z,98353.84
2019-01-19T11:52:35.253Z,98345.52
2019-01-19T11:55:08.228Z,98346.98
2019-01-19T11:57:39.195Z,98343.12
2019-01-19T12:00:17.196Z,98336.23
2019-01-19T12:02:47.530Z,98335.47
2019-01-19T12:05:17.852Z,98332.42
2019-01-19T12:07:48.762Z,98331.52
2019-01-19T12:10:21.338Z,98328.35
2019-01-19T12:12:52.041Z,98323.00
2019-01-19T12:15:23.360Z,98322.02
2019-01-19T12:17:53.707Z,98317.31
2019-01-19T12:20:29.847Z,98316.11
2019-01-19T12:23:00.568Z,98321.55
2019-01-19T12:25:31.400Z,98309.09
2019-01-19T12:28:01.619Z,98300.63
2019-01-19T12:30:32.374Z,98303.17
2019-01-19T12:33:03.215Z,98296.72
2019-01-19T12:35:33.517Z,98291.52
2019-01-19T12:38:04.660Z,98295.59
2019-01-19T12:40:35.130Z,98293.48
2019-01-19T12:43:13.083Z,98289.53
2019-01-19T12:45:46.198Z,98285.15
2019-01-19T12:48:16.533Z,98283.47
2019-01-19T12:50:47.225Z,98281.16
2019-01-19T12:53:17.995Z,98275.07
2019-01-19T12:55:48.225Z,98269.97
2019-01-19T12:58:18.508Z,98271.60
2019-01-19T13:00:48.699Z,98272.67
2019-01-19T13:03:19.465Z,98262.03
2019-01-19T13:06:04.583Z,98259.61
2019-01-19T13:08:35.069Z,98250.83
2019-01-19T13:11:58.867Z,98251.94
2019-01-19T13:14:30.119Z,98236.25
2019-01-19T13:17:27.657Z,98243.44
2019-01-19T13:20:47.243Z,98236.30
2019-01-19T13:23:45.176Z,98237.20
2019-01-19T13:27:15.034Z,98225.67
2019-01-19T13:30:24.956Z,98218.42
2019-01-19T13:33:23.627Z,98218.41
2019-01-19T13:36:22.349Z,98211.16
2019-01-19T13:39:35.381Z,98213.06
2019-01-19T13:42:42.394Z,98210.58
2019-01-19T13:45:43.403Z,98218.16
2019-01-19T13:49:00.694Z,98205.54
2019-01-19T13:52:23.769Z,98204.01
2019-01-19T13:55:23.647Z,98199.67
2019-01-19T13:58:10.223Z,98197.38
2019-01-19T14:01:14.257Z,98199.33
2019-01-19T14:03:56.181Z,98195.48
2019-01-19T14:06:59.499Z,98191.37
2019-01-19T14:10:13.188Z,98198.03
2019-01-19T14:13:14.688Z,98194.11
2019-01-19T14:16:07.102Z,98187.34
2019-01-19T14:19:10.328Z,98182.10
2019-01-19T14:22:07.123Z,98176.55
2019-01-19T14:24:56.580Z,98175.73
2019-01-19T14:28:04.878Z,98173.53
2019-01-19T14:30:58.153Z,98169.80
2019-01-19T14:34:05.608Z,98158.19
2019-01-19T14:37:09.361Z,98156.45
2019-01-19T14:39:57.833Z,98162.02
2019-01-19T14:42:47.788Z,98161.20
2019-01-19T14:46:07.277Z,98158.59
2019-01-19T14:49:08.422Z,98154.02
2019-01-19T14:51:56.134Z,98147.16
2019-01-19T14:54:58.064Z,98162.09
2019-01-19T14:58:00.854Z,98146.76
2019-01-19T15:00:55.412Z,98145.56
2019-01-19T15:03:36.046Z,98141.81
2019-01-19T15:06:39.366Z,98138.69
2019-01-19T15:09:24.796Z,98142.77
2019-01-19T15:12:47.857Z,98141.20
2019-01-19T15:15:50.164Z,98145.53
2019-01-19T15:19:01.458Z,98138.25
2019-01-19T15:21:56.163Z,98131.48
2019-01-19T15:24:52.112Z,98130.19
2019-01-19T15:27:50.905Z,98128.64
2019-01-19T15:30:47.157Z,98132.16
2019-01-19T15:33:58.064Z,98130.53
2019-01-19T15:37:00.708Z,98130.03
2019-01-19T15:40:06.361Z,98124.52
2019-01-19T15:42:50.232Z,98124.25
2019-01-19T15:45:56.439Z,98125.19
2019-01-19T15:48:53.106Z,98125.22
2019-01-19T15:52:17.265Z,98119.09
2019-01-19T15:55:20.280Z,98122.64
2019-01-19T15:58:24.547Z,98118.59
2019-01-19T16:01:41.735Z,98117.17
2019-01-19T16:04:53.902Z,98110.89
2019-01-19T16:08:02.112Z,98119.15
2019-01-19T16:11:04.305Z,98115.05
2019-01-19T16:13:53.993Z,98107.86
2019-01-19T16:16:57.074Z,98110.78
2019-01-19T16:20:04.242Z,98113.20
2019-01-19T16:22:49.617Z,98116.59
2019-01-19T16:26:10.205Z,98119.30
2019-01-19T16:29:28.167Z,98110.26
2019-01-19T16:32:47.959Z,98114.05
2019-01-19T16:35:31.376Z,98120.92
2019-01-19T16:38:47.529Z,98117.76
2019-01-19T16:41:59.278Z,98120.61
2019-01-19T16:45:09.717Z,98119.52
2019-01-19T16:48:21.148Z,98113.63
2019-01-19T16:51:41.579Z,98117.88
2019-01-19T16:54:37.118Z,98119.30
2019-01-19T16:57:54.785Z,98108.92
2019-01-19T17:00:59.515Z,98117.34
2019-01-19T17:04:02.699Z,98105.25
2019-01-19T17:07:06.958Z,98102.69
2019-01-19T17:10:02.992Z,98114.00
2019-01-19T17:13:21.105Z,98110.20
2019-01-19T17:16:40.474Z,98109.16
2019-01-19T17:19:35.810Z,98106.15
2019-01-19T17:22:41.360Z,98107.90
2019-01-19T17:25:44.601Z,98104.77
2019-01-19T17:28:54.806Z,98106.63
2019-01-19T17:31:57.518Z,98104.41
2019-01-19T17:35:13.266Z,98105.77
2019-01-19T17:38:14.846Z,98100.89
2019-01-19T17:41:34.930Z,98104.82
2019-01-19T17:44:44.768Z,98106.48
2019-01-19T17:47:26.298Z,98110.45
2019-01-19T17:50:51.554Z,98107.19
2019-01-19T17:54:13.307Z,98117.80
2019-01-19T17:57:08.209Z,98117.81
2019-01-19T18:00:10.350Z,98110.92
2019-01-19T18:03:28.029Z,98115.92
2019-01-19T18:06:20.378Z,98107.66
2019-01-19T18:09:47.589Z,98105.97
2019-01-19T18:12:36.639Z,98110.31
2019-01-19T18:16:07.311Z,98110.17
2019-01-19T18:19:16.097Z,98115.98
2019-01-19T18:22:35.853Z,98112.89
2019-01-19T18:25:28.373Z,98120.83
2019-01-19T18:28:37.918Z,98116.86
2019-01-19T18:32:04.409Z,98112.83
2019-01-19T18:35:16.423Z,98116.56
2019-01-19T18:38:36.693Z,98114.96
2019-01-19T18:41:50.916Z,98112.48
2019-01-19T18:45:01.845Z,98104.13
2019-01-19T18:48:03.532Z,98117.27
2019-01-19T18:51:04.624Z,98111.16
2019-01-19T18:54:21.581Z,98104.08
2019-01-19T18:57:34.771Z,98102.61
2019-01-19T19:00:38.312Z,98107.60
2019-01-19T19:03:52.543Z,98101.97
2019-01-19T19:07:19.273Z,98100.53
2019-01-19T19:10:02.086Z,98100.30
2019-01-19T19:12:59.420Z,98100.02
2019-01-19T19:15:57.979Z,98098.97
2019-01-19T19:19:00.293Z,98096.72
2019-01-19T19:21:47.787Z,98099.05
2019-01-19T19:24:55.104Z,98093.30
2019-01-19T19:27:51.038Z,98098.05
2019-01-19T19:31:27.195Z,98098.84
2019-01-19T19:34:10.559Z,98095.69
2019-01-19T19:36:51.770Z,98090.84
2019-01-19T19:39:59.274Z,98090.55
2019-01-19T19:42:55.517Z,98092.66
2019-01-19T19:46:07.339Z,98096.49
2019-01-19T19:49:26.708Z,98099.39
2019-01-19T19:51:55.885Z,98097.89
2019-01-19T19:54:27.127Z,98098.89
2019-01-19T19:56:59.320Z,98103.63
2019-01-19T19:59:30.043Z,98100.34
2019-01-19T20:02:00.698Z,98098.09
2019-01-19T20:04:31.203Z,98097.71
2019-01-19T20:07:01.957Z,98105.46
2019-01-19T20:09:33.019Z,98105.46
2019-01-19T20:12:09.927Z,98107.58
2019-01-19T20:14:40.331Z,98108.80
2019-01-19T20:17:11.054Z,98102.19
2019-01-19T20:19:41.401Z,98105.06
2019-01-19T20:22:12.033Z,98109.79
2019-01-19T20:24:43.262Z,98114.14
2019-01-19T20:27:14.873Z,98111.44
2019-01-19T20:29:45.732Z,98111.37
2019-01-19T20:32:16.879Z,98106.13
2019-01-19T20:34:47.235Z,98116.10
2019-01-19T20:37:18.262Z,98107.67
2019-01-19T20:39:48.485Z,98108.89
2019-01-19T20:42:19.160Z,98105.00
2019-01-19T20:44:49.409Z,98111.56
2019-01-19T20:47:20.032Z,98105.14
2019-01-19T20:49:50.532Z,98099.16
2019-01-19T20:52:21.013Z,98104.81
2019-01-19T20:54:52.047Z,98098.17
2019-01-19T20:57:22.799Z,98106.98
2019-01-19T20:59:53.339Z,98103.97
2019-01-19T21:02:23.621Z,98097.73
2019-01-19T21:04:53.844Z,98104.35
2019-01-19T21:07:24.390Z,98103.23
2019-01-19T21:09:55.170Z,98099.57
2019-01-19T21:12:25.764Z,98100.47
2019-01-19T21:14:55.973Z,98096.67
2019-01-19T21:17:26.912Z,98099.23
2019-01-19T21:19:57.935Z,98107.42
2019-01-19T21:22:28.366Z,98108.13
2019-01-19T21:24:58.614Z,98099.28
2019-01-19T21:27:29.559Z,98109.30
2019-01-19T21:29:59.823Z,98105.72
2019-01-19T21:32:30.404Z,98107.14
2019-01-19T21:35:01.064Z,98113.14
2019-01-19T21:37:31.331Z,98112.79
2019-01-19T21:40:01.508Z,98105.95
2019-01-19T21:42:32.810Z,98109.23
2019-01-19T21:45:03.591Z,98108.08
2019-01-19T21:47:34.296Z,98100.67
2019-01-19T21:50:06.124Z,98107.88
2019-01-19T21:52:36.381Z,98099.39
2019-01-19T21:55:09.023Z,98105.16
2019-01-19T21:57:39.931Z,98099.16
2019-01-19T22:00:13.773Z,98097.72
2019-01-19T22:02:44.067Z,98090.69
2019-01-19T22:05:15.077Z,98105.03
2019-01-19T22:07:46.086Z,98098.88
2019-01-19T22:10:18.035Z,98095.34
2019-01-19T22:12:48.775Z,98099.62
2019-01-19T22:15:19.650Z,98098.82
2019-01-19T22:17:50.161Z,98103.22
2019-01-19T22:20:21.119Z,98102.44
2019-01-19T22:22:51.731Z,98102.58
2019-01-19T22:25:22.521Z,98108.95
2019-01-19T22:27:53.120Z,98107.62
2019-01-19T22:30:25.066Z,98113.27
2019-01-19T22:32:56.911Z,98109.22
2019-01-19T22:35:30.804Z,98108.47
2019-01-19T22:38:01.385Z,98104.80
2019-01-19T22:40:31.942Z,98110.19
2019-01-19T22:43:05.525Z,98113.19
2019-01-19T22:45:36.245Z,98112.81
2019-01-19T22:48:08.218Z,98104.20
2019-01-19T22:50:38.677Z,98112.28
2019-01-19T22:53:09.304Z,98109.22
2019-01-19T22:55:39.845Z,98113.80
2019-01-19T22:58:10.423Z,98108.24
2019-01-19T23:01:08.192Z,98109.73
2019-01-19T23:03:41.107Z,98105.50
2019-01-19T23:06:11.372Z,98110.73
2019-01-19T23:08:41.868Z,98107.99
2019-01-19T23:11:12.143Z,98104.39
2019-01-19T23:13:42.717Z,98103.46
2019-01-19T23:16:13.807Z,98108.04
2019-01-19T23:18:44.657Z,98099.05
2019-01-19T23:21:15.813Z,98102.48
2019-01-19T23:23:46.512Z,98103.99
2019-01-19T23:26:17.115Z,98099.55
2019-01-19T23:28:47.593Z,98100.91
2019-01-19T23:31:17.864Z,98098.61
2019-01-19T23:33:48.462Z,98093.23
2019-01-19T23:36:19.013Z,98098.24
2019-01-19T23:38:49.930Z,98095.48
2019-01-19T23:41:20.520Z,98093.13
2019-01-19T23:43:51.089Z,98097.72
2019-01-19T23:46:22.266Z,98094.45
2019-01-19T23:48:53.483Z,98093.66
2019-01-19T23:51:24.315Z,98096.94
2019-01-19T23:53:54.847Z,98094.03
2019-01-19T23:56:25.108Z,98097.72
2019-01-19T23:58:56.934Z,98095.66
